Time;durP1;ratioP1;P1;durP2;ratioP2;P2;SDS_P1;SDS_P2;PMS_P1;PMS_P2;Temp;Humidity;BMP_temperature;BMP_pressure;BME280_temperature;BME280_humidity;BME280_pressure;Samples;Min_cycle;Max_cycle;Signal;HPM_P1;HPM_P2
2021/06/16 00:02:12;;;;;;;6.38;2.22;;;;;;;;;;4922637;28;20581;-56
2021/06/16 00:04:42;;;;;;;8.18;2.72;;;;;;;;;;4938965;28;20054;-56
2021/06/16 00:07:10;;;;;;;6.65;2.83;;;;;;;;;;4937867;28;20027;-55
2021/06/16 00:09:43;;;;;;;4.75;2.65;;;;;;;;;;4940953;28;20400;-57
2021/06/16 00:12:09;;;;;;;8.88;2.58;;;;;;;;;;4936433;28;20037;-58
2021/06/16 00:14:37;;;;;;;5.38;2.30;;;;;;;;;;4934726;28;20044;-58
2021/06/16 00:17:05;;;;;;;5.78;2.83;;;;;;;;;;4935257;28;20038;-56
2021/06/16 00:19:33;;;;;;;6.88;2.95;;;;;;;;;;4924441;28;20130;-57
2021/06/16 00:22:02;;;;;;;7.15;2.35;;;;;;;;;;4936861;28;20035;-58
2021/06/16 00:24:28;;;;;;;11.52;2.28;;;;;;;;;;4932934;28;20030;-57
2021/06/16 00:26:56;;;;;;;7.25;2.28;;;;;;;;;;4920826;28;20043;-57
2021/06/16 00:29:24;;;;;;;5.28;2.30;;;;;;;;;;4939094;28;20030;-58
2021/06/16 00:31:50;;;;;;;6.75;2.33;;;;;;;;;;4906432;28;20442;-55
2021/06/16 00:34:18;;;;;;;7.35;2.95;;;;;;;;;;4919546;28;20035;-55
2021/06/16 00:36:48;;;;;;;6.75;2.30;;;;;;;;;;4939545;28;20035;-57
2021/06/16 00:39:13;;;;;;;7.68;2.10;;;;;;;;;;4934193;28;20050;-56
2021/06/16 00:41:44;;;;;;;6.28;2.22;;;;;;;;;;4933611;28;20043;-57
2021/06/16 00:44:09;;;;;;;5.93;2.17;;;;;;;;;;4935780;28;20038;-57
2021/06/16 00:46:34;;;;;;;6.45;2.22;;;;;;;;;;4937228;28;20624;-57
2021/06/16 00:49:05;;;;;;;3.25;2.03;;;;;;;;;;4907470;28;20374;-60
2021/06/16 00:51:35;;;;;;;9.73;2.42;;;;;;;;;;4938901;28;20039;-57
2021/06/16 00:54:09;;;;;;;8.65;2.35;;;;;;;;;;4938301;28;20050;-56
2021/06/16 00:56:42;;;;;;;5.38;2.30;;;;;;;;;;4933562;28;20502;-57
2021/06/16 00:59:10;;;;;;;10.63;2.30;;;;;;;;;;4926245;28;20039;-58
2021/06/16 01:01:44;;;;;;;6.35;2.60;;;;;;;;;;4933696;28;20043;-57
2021/06/16 01:04:18;;;;;;;15.93;3.00;;;;;;;;;;4936752;28;20041;-56
2021/06/16 01:06:46;;;;;;;;;;;;;;;;;;4935245;28;20031;-55
2021/06/16 01:09:17;;;;;;;7.97;2.20;;;;;;;;;;4933955;28;19918;-57
2021/06/16 01:11:50;;;;;;;9.68;2.45;;;;;;;;;;4907562;28;20039;-57
2021/06/16 01:14:28;;;;;;;4.10;1.77;;;;;;;;;;4935194;28;20097;-55
2021/06/16 01:16:58;;;;;;;7.45;2.05;;;;;;;;;;4934389;28;20030;-58
2021/06/16 01:19:45;;;;;;;14.30;2.42;;;;;;;;;;4933963;28;20081;-56
2021/06/16 01:22:28;;;;;;;12.48;2.38;;;;;;;;;;4920088;28;20038;-57
2021/06/16 01:24:55;;;;;;;7.60;2.08;;;;;;;;;;4935881;28;20043;-56
2021/06/16 01:27:24;;;;;;;3.33;1.85;;;;;;;;;;4933842;28;20035;-56
2021/06/16 01:29:52;;;;;;;6.30;2.63;;;;;;;;;;4935398;28;20067;-57
2021/06/16 01:32:18;;;;;;;6.32;2.25;;;;;;;;;;4935287;28;20076;-54
2021/06/16 01:34:43;;;;;;;5.18;2.42;;;;;;;;;;4936089;28;20030;-54
2021/06/16 01:37:11;;;;;;;4.10;2.08;;;;;;;;;;4928962;28;20175;-56
2021/06/16 01:39:40;;;;;;;8.43;2.40;;;;;;;;;;4943368;28;20518;-56
2021/06/16 01:42:08;;;;;;;5.05;1.95;;;;;;;;;;4939245;28;20153;-56
2021/06/16 01:44:34;;;;;;;8.25;2.17;;;;;;;;;;4938678;28;20069;-58
2021/06/16 01:47:02;;;;;;;5.57;2.00;;;;;;;;;;4923094;28;20035;-56
2021/06/16 01:49:31;;;;;;;7.28;2.95;;;;;;;;;;4925295;28;20058;-57
2021/06/16 01:51:57;;;;;;;6.72;2.33;;;;;;;;;;4938470;28;20031;-57
2021/06/16 01:54:24;;;;;;;6.55;3.10;;;;;;;;;;4925214;28;20077;-55
2021/06/16 01:56:50;;;;;;;11.27;2.35;;;;;;;;;;4941175;28;20114;-56
2021/06/16 01:59:16;;;;;;;4.22;1.80;;;;;;;;;;4942805;28;20027;-56
2021/06/16 02:01:42;;;;;;;6.38;2.50;;;;;;;;;;4923485;28;20118;-58
2021/06/16 02:04:08;;;;;;;9.23;2.45;;;;;;;;;;4931582;28;20045;-58
2021/06/16 02:06:39;;;;;;;6.03;2.00;;;;;;;;;;4946420;28;20041;-58
2021/06/16 02:09:05;;;;;;;6.57;2.00;;;;;;;;;;4929487;28;20031;-57
2021/06/16 02:11:34;;;;;;;4.72;2.47;;;;;;;;;;4944475;28;20046;-56
2021/06/16 02:14:05;;;;;;;3.70;2.40;;;;;;;;;;4946597;28;20066;-57
2021/06/16 02:16:36;;;;;;;6.07;2.35;;;;;;;;;;4947192;28;20125;-56
2021/06/16 02:19:07;;;;;;;7.18;2.13;;;;;;;;;;4945020;28;20042;-58
2021/06/16 02:21:38;;;;;;;5.47;2.78;;;;;;;;;;4925826;28;20467;-55
2021/06/16 02:24:03;;;;;;;5.95;2.15;;;;;;;;;;4928617;28;20019;-57
2021/06/16 02:26:29;;;;;;;3.58;2.25;;;;;;;;;;4943181;28;20497;-55
2021/06/16 02:28:57;;;;;;;5.95;2.20;;;;;;;;;;4944089;28;20569;-57
2021/06/16 02:31:27;;;;;;;2.78;1.85;;;;;;;;;;4945097;28;20042;-57
2021/06/16 02:33:55;;;;;;;5.05;2.35;;;;;;;;;;4940961;28;20038;-57
2021/06/16 02:36:28;;;;;;;5.97;2.38;;;;;;;;;;4945640;28;20054;-57
2021/06/16 02:39:03;;;;;;;5.13;2.20;;;;;;;;;;4946781;28;20031;-56
2021/06/16 02:41:32;;;;;;;6.88;2.60;;;;;;;;;;4926290;28;20856;-56
2021/06/16 02:44:00;;;;;;;7.18;2.28;;;;;;;;;;4943670;28;20019;-58
2021/06/16 02:46:30;;;;;;;8.00;2.38;;;;;;;;;;4944667;28;20038;-57
2021/06/16 02:48:57;;;;;;;5.93;2.60;;;;;;;;;;4944228;28;20043;-57
2021/06/16 02:51:22;;;;;;;8.13;2.30;;;;;;;;;;4942803;28;20038;-56
2021/06/16 02:54:13;;;;;;;8.68;2.55;;;;;;;;;;4932637;28;20050;-56
2021/06/16 02:56:41;;;;;;;6.25;2.47;;;;;;;;;;4944608;28;20039;-57
2021/06/16 02:59:10;;;;;;;7.05;2.20;;;;;;;;;;4944100;28;20118;-56
2021/06/16 03:01:45;;;;;;;6.18;2.60;;;;;;;;;;4942446;28;20039;-58
2021/06/16 03:04:15;;;;;;;6.90;3.08;;;;;;;;;;4943302;28;20043;-56
2021/06/16 03:06:43;;;;;;;6.18;2.67;;;;;;;;;;4944609;28;20018;-57
2021/06/16 03:09:10;;;;;;;10.23;2.63;;;;;;;;;;4944199;28;20384;-56
2021/06/16 03:11:38;;;;;;;5.90;2.33;;;;;;;;;;4937375;28;20057;-58
2021/06/16 03:14:06;;;;;;;6.50;2.65;;;;;;;;;;4944191;28;20424;-57
2021/06/16 03:16:38;;;;;;;9.88;2.88;;;;;;;;;;4944129;28;20030;-56
2021/06/16 03:19:06;;;;;;;4.78;2.22;;;;;;;;;;4943392;28;20042;-54
2021/06/16 03:21:34;;;;;;;10.05;2.45;;;;;;;;;;4946172;28;20054;-56
2021/06/16 03:24:02;;;;;;;7.70;2.60;;;;;;;;;;4945607;28;20116;-58
2021/06/16 03:26:31;;;;;;;10.48;3.13;;;;;;;;;;4944603;28;20034;-56
2021/06/16 03:28:57;;;;;;;8.15;3.38;;;;;;;;;;4942649;28;20038;-57
2021/06/16 03:31:25;;;;;;;13.27;3.08;;;;;;;;;;4942031;28;20644;-56
2021/06/16 03:33:54;;;;;;;4.18;2.42;;;;;;;;;;4944302;28;20063;-56
2021/06/16 03:36:22;;;;;;;11.50;3.45;;;;;;;;;;4943861;28;20151;-57
2021/06/16 03:38:52;;;;;;;7.45;2.55;;;;;;;;;;4942192;28;20038;-57
2021/06/16 03:41:35;;;;;;;9.10;2.97;;;;;;;;;;4942768;28;20038;-58
2021/06/16 03:44:02;;;;;;;6.57;2.40;;;;;;;;;;4932287;28;20133;-57
2021/06/16 03:46:38;;;;;;;7.15;2.67;;;;;;;;;;4940591;28;21801;-55
2021/06/16 03:49:05;;;;;;;12.13;3.55;;;;;;;;;;4941062;28;20118;-56
2021/06/16 03:51:36;;;;;;;14.85;3.42;;;;;;;;;;4940583;28;20058;-55
2021/06/16 03:54:11;;;;;;;5.88;2.88;;;;;;;;;;4942634;28;20050;-55
2021/06/16 03:56:39;;;;;;;7.60;2.50;;;;;;;;;;4941899;28;20142;-57
2021/06/16 03:59:08;;;;;;;6.40;2.63;;;;;;;;;;4942483;28;20031;-55
2021/06/16 04:01:41;;;;;;;8.27;2.70;;;;;;;;;;4925126;28;20042;-56
2021/06/16 04:04:12;;;;;;;8.75;2.92;;;;;;;;;;4924808;28;20078;-57
2021/06/16 04:06:41;;;;;;;6.53;2.60;;;;;;;;;;4941264;28;20039;-57
2021/06/16 04:09:10;;;;;;;7.57;2.83;;;;;;;;;;4939257;28;20147;-58
2021/06/16 04:11:39;;;;;;;4.90;2.67;;;;;;;;;;4942011;28;20119;-56
2021/06/16 04:14:07;;;;;;;11.85;3.08;;;;;;;;;;4940715;28;20026;-56
2021/06/16 04:16:35;;;;;;;5.43;3.40;;;;;;;;;;4944027;28;20038;-57
2021/06/16 04:19:04;;;;;;;13.32;3.28;;;;;;;;;;4931977;28;20031;-57
2021/06/16 04:21:32;;;;;;;4.05;2.53;;;;;;;;;;4928470;28;20034;-56
2021/06/16 04:23:58;;;;;;;5.60;2.33;;;;;;;;;;4945140;28;20035;-57
2021/06/16 04:26:26;;;;;;;7.75;3.35;;;;;;;;;;4910787;28;21019;-57
2021/06/16 04:28:53;;;;;;;8.35;2.92;;;;;;;;;;4936973;28;20038;-57
2021/06/16 04:31:21;;;;;;;9.30;2.58;;;;;;;;;;4940028;28;20062;-58
2021/06/16 04:33:49;;;;;;;5.97;2.63;;;;;;;;;;4943377;28;20145;-57
2021/06/16 04:36:16;;;;;;;7.10;2.75;;;;;;;;;;4945795;28;20524;-57
2021/06/16 04:38:42;;;;;;;4.82;2.20;;;;;;;;;;4944720;28;20039;-59
2021/06/16 04:41:10;;;;;;;8.25;2.92;;;;;;;;;;4942960;28;20035;-55
2021/06/16 04:43:38;;;;;;;15.55;3.17;;;;;;;;;;4927203;28;20043;-58
2021/06/16 04:46:06;;;;;;;12.00;2.83;;;;;;;;;;4926294;28;20031;-57
2021/06/16 04:48:34;;;;;;;7.85;2.78;;;;;;;;;;4942391;28;20040;-54
2021/06/16 04:51:06;;;;;;;7.78;3.15;;;;;;;;;;4941752;28;20031;-56
2021/06/16 04:53:32;;;;;;;6.97;3.03;;;;;;;;;;4942966;28;20101;-58
2021/06/16 04:55:58;;;;;;;7.20;2.90;;;;;;;;;;4944912;28;20039;-56
2021/06/16 04:58:26;;;;;;;10.15;2.90;;;;;;;;;;4942807;28;20042;-57
2021/06/16 05:00:52;;;;;;;2.92;2.42;;;;;;;;;;4939749;28;20055;-57
2021/06/16 05:03:17;;;;;;;8.20;2.70;;;;;;;;;;4942886;28;20047;-57
2021/06/16 05:05:44;;;;;;;4.28;2.13;;;;;;;;;;4932552;28;20617;-57
2021/06/16 05:08:12;;;;;;;8.13;2.20;;;;;;;;;;4927542;28;20459;-57
2021/06/16 05:10:38;;;;;;;9.05;2.63;;;;;;;;;;4929640;28;20039;-58
2021/06/16 05:13:03;;;;;;;6.88;2.33;;;;;;;;;;4945900;28;20050;-58
2021/06/16 05:15:31;;;;;;;6.35;2.17;;;;;;;;;;4938714;28;20039;-58
2021/06/16 05:18:03;;;;;;;13.18;2.42;;;;;;;;;;4929210;28;20147;-58
2021/06/16 05:20:31;;;;;;;10.75;2.05;;;;;;;;;;4945600;28;20138;-58
2021/06/16 05:23:02;;;;;;;7.18;2.15;;;;;;;;;;4948152;28;20034;-58
2021/06/16 05:25:30;;;;;;;5.03;2.30;;;;;;;;;;4930619;28;20039;-58
2021/06/16 05:27:55;;;;;;;5.88;1.63;;;;;;;;;;4947834;28;20145;-57
2021/06/16 05:30:26;;;;;;;5.93;2.15;;;;;;;;;;4943737;28;20088;-59
2021/06/16 05:32:51;;;;;;;6.88;1.92;;;;;;;;;;4943107;28;20340;-58
2021/06/16 05:35:22;;;;;;;7.38;2.20;;;;;;;;;;4916592;28;20031;-56
2021/06/16 05:37:47;;;;;;;3.05;1.90;;;;;;;;;;4946117;28;20133;-58
2021/06/16 05:40:14;;;;;;;4.13;1.30;;;;;;;;;;4946721;28;20038;-57
2021/06/16 05:42:42;;;;;;;6.38;1.48;;;;;;;;;;4924307;28;20501;-57
2021/06/16 05:45:13;;;;;;;8.10;2.03;;;;;;;;;;4929510;28;20063;-58
2021/06/16 05:47:41;;;;;;;8.35;1.77;;;;;;;;;;4945595;28;20036;-57
2021/06/16 05:50:12;;;;;;;3.63;1.85;;;;;;;;;;4944492;28;20122;-58
2021/06/16 05:52:39;;;;;;;8.55;1.60;;;;;;;;;;4947282;28;20042;-58
2021/06/16 05:55:07;;;;;;;4.53;1.23;;;;;;;;;;4929969;28;20050;-58
2021/06/16 05:57:33;;;;;;;7.97;1.83;;;;;;;;;;4929446;28;20089;-56
2021/06/16 06:00:01;;;;;;;4.47;1.38;;;;;;;;;;4947134;28;20035;-56
2021/06/16 06:02:26;;;;;;;5.68;1.92;;;;;;;;;;4934245;28;20030;-56
2021/06/16 06:04:51;;;;;;;6.20;1.90;;;;;;;;;;4928096;28;20066;-57
2021/06/16 06:07:17;;;;;;;3.75;1.95;;;;;;;;;;4939969;28;20042;-58
2021/06/16 06:09:45;;;;;;;5.88;1.73;;;;;;;;;;4947932;28;20168;-58
2021/06/16 06:12:13;;;;;;;6.05;1.80;;;;;;;;;;4948082;28;20044;-58
2021/06/16 06:14:41;;;;;;;2.28;1.08;;;;;;;;;;4945493;28;20037;-59
2021/06/16 06:17:09;;;;;;;4.32;1.55;;;;;;;;;;4947118;28;20043;-59
2021/06/16 06:19:37;;;;;;;3.05;1.20;;;;;;;;;;4945418;28;20043;-60
2021/06/16 06:22:06;;;;;;;4.20;1.50;;;;;;;;;;4945529;28;20035;-58
2021/06/16 06:24:36;;;;;;;4.45;1.50;;;;;;;;;;4913411;28;20077;-58
2021/06/16 06:27:01;;;;;;;5.30;1.60;;;;;;;;;;4947378;28;20042;-59
2021/06/16 06:29:29;;;;;;;1.67;1.10;;;;;;;;;;4929137;28;20042;-57
2021/06/16 06:31:57;;;;;;;7.15;1.83;;;;;;;;;;4945506;28;20080;-58
2021/06/16 06:34:22;;;;;;;10.90;1.40;;;;;;;;;;4927522;28;20026;-58
2021/06/16 06:36:48;;;;;;;4.93;1.33;;;;;;;;;;4927311;28;20493;-58
2021/06/16 06:39:19;;;;;;;5.05;1.30;;;;;;;;;;4930077;28;21817;-58
2021/06/16 06:41:44;;;;;;;4.38;1.20;;;;;;;;;;4946563;28;20035;-58
2021/06/16 06:44:12;;;;;;;10.90;1.52;;;;;;;;;;4926776;28;20113;-58
2021/06/16 06:46:37;;;;;;;4.07;1.52;;;;;;;;;;4945526;28;20065;-58
2021/06/16 06:49:03;;;;;;;4.28;1.30;;;;;;;;;;4946434;28;20058;-58
2021/06/16 06:51:30;;;;;;;3.53;1.65;;;;;;;;;;4943812;28;20053;-57
2021/06/16 06:53:58;;;;;;;5.50;1.73;;;;;;;;;;4918689;28;20836;-57
2021/06/16 06:56:24;;;;;;;4.53;1.17;;;;;;;;;;4947061;28;20114;-58
2021/06/16 06:58:49;;;;;;;4.47;1.50;;;;;;;;;;4942742;28;20050;-58
2021/06/16 07:01:19;;;;;;;5.05;1.30;;;;;;;;;;4944820;28;20038;-58
2021/06/16 07:03:45;;;;;;;5.35;1.20;;;;;;;;;;4944200;28;20077;-58
2021/06/16 07:06:13;;;;;;;6.22;1.63;;;;;;;;;;4945457;28;20035;-58
2021/06/16 07:08:38;;;;;;;4.35;1.42;;;;;;;;;;4945214;28;20035;-59
2021/06/16 07:11:07;;;;;;;2.40;1.17;;;;;;;;;;4943751;28;20035;-58
2021/06/16 07:13:32;;;;;;;4.75;1.35;;;;;;;;;;4944734;28;20306;-58
2021/06/16 07:16:00;;;;;;;5.18;1.60;;;;;;;;;;4945756;28;20031;-58
2021/06/16 07:18:28;;;;;;;6.70;1.50;;;;;;;;;;4942117;28;20043;-58
2021/06/16 07:20:58;;;;;;;4.65;1.33;;;;;;;;;;4947161;28;20550;-57
2021/06/16 07:23:23;;;;;;;3.53;1.15;;;;;;;;;;4942584;28;20092;-57
2021/06/16 07:25:51;;;;;;;5.25;1.70;;;;;;;;;;4944700;28;20066;-58
2021/06/16 07:28:17;;;;;;;7.85;1.95;;;;;;;;;;4945335;28;20035;-58
2021/06/16 07:30:43;;;;;;;2.17;1.27;;;;;;;;;;4945317;28;20978;-58
2021/06/16 07:33:09;;;;;;;7.55;1.63;;;;;;;;;;4943377;28;20072;-57
2021/06/16 07:35:36;;;;;;;3.40;1.10;;;;;;;;;;4944752;28;20078;-58
2021/06/16 07:38:05;;;;;;;4.85;1.30;;;;;;;;;;4913677;28;20941;-58
2021/06/16 07:40:35;;;;;;;5.25;1.20;;;;;;;;;;4934174;28;20098;-58
2021/06/16 07:43:01;;;;;;;7.95;1.52;;;;;;;;;;4944135;28;22053;-58
2021/06/16 07:45:26;;;;;;;4.18;1.50;;;;;;;;;;4944866;28;20046;-59
2021/06/16 07:47:56;;;;;;;2.50;1.27;;;;;;;;;;4943789;28;20069;-58
2021/06/16 07:50:22;;;;;;;3.65;1.48;;;;;;;;;;4944519;28;20509;-59
2021/06/16 07:52:49;;;;;;;2.28;1.00;;;;;;;;;;4933406;28;20045;-58
2021/06/16 07:55:34;;;;;;;3.22;1.10;;;;;;;;;;4945671;28;20144;-62
2021/06/16 07:58:24;;;;;;;5.05;1.50;;;;;;;;;;4936992;28;20038;-58
2021/06/16 08:01:08;;;;;;;2.92;0.95;;;;;;;;;;4947073;28;20071;-58
2021/06/16 08:03:53;;;;;;;3.00;1.15;;;;;;;;;;4942550;28;20050;-56
2021/06/16 08:06:40;;;;;;;3.97;0.98;;;;;;;;;;4944865;28;20169;-59
2021/06/16 08:09:27;;;;;;;3.90;1.10;;;;;;;;;;4945768;28;20055;-59
2021/06/16 08:12:13;;;;;;;2.88;1.13;;;;;;;;;;4932358;28;20138;-59
2021/06/16 08:14:58;;;;;;;3.53;1.40;;;;;;;;;;4950317;28;20042;-59
2021/06/16 08:17:42;;;;;;;5.65;1.15;;;;;;;;;;4947087;28;20139;-59
2021/06/16 08:20:31;;;;;;;6.97;1.00;;;;;;;;;;4934985;28;20198;-59
2021/06/16 08:23:18;;;;;;;3.38;1.30;;;;;;;;;;4945308;28;20542;-59
2021/06/16 08:26:04;;;;;;;2.72;0.98;;;;;;;;;;4942337;28;20053;-58
2021/06/16 08:28:51;;;;;;;4.10;1.20;;;;;;;;;;4945090;28;20050;-59
2021/06/16 08:31:37;;;;;;;3.03;1.27;;;;;;;;;;4943592;28;20101;-58
2021/06/16 08:34:24;;;;;;;6.45;1.00;;;;;;;;;;4940862;28;20105;-59
2021/06/16 08:37:09;;;;;;;3.70;1.17;;;;;;;;;;4930724;28;20145;-59
2021/06/16 08:39:57;;;;;;;7.18;1.30;;;;;;;;;;4949009;28;20663;-59
2021/06/16 08:42:43;;;;;;;2.90;0.82;;;;;;;;;;4944328;28;20141;-59
2021/06/16 08:45:34;;;;;;;4.03;1.08;;;;;;;;;;4948636;28;20038;-58
2021/06/16 08:48:17;;;;;;;4.10;1.08;;;;;;;;;;4954828;28;20637;-59
2021/06/16 08:51:05;;;;;;;3.58;0.98;;;;;;;;;;4952148;28;20049;-59
2021/06/16 08:53:49;;;;;;;8.43;0.93;;;;;;;;;;4952541;28;20062;-60
2021/06/16 08:56:33;;;;;;;2.47;0.88;;;;;;;;;;4949810;28;20046;-58
2021/06/16 08:59:17;;;;;;;3.30;0.88;;;;;;;;;;4949283;28;20118;-59
2021/06/16 09:02:02;;;;;;;3.83;0.73;;;;;;;;;;4924541;28;20100;-59
2021/06/16 09:04:50;;;;;;;2.63;0.85;;;;;;;;;;4952427;28;20783;-58
2021/06/16 09:07:37;;;;;;;2.75;1.02;;;;;;;;;;4948970;28;20057;-58
2021/06/16 09:10:21;;;;;;;4.05;1.08;;;;;;;;;;4952464;28;20054;-59
2021/06/16 09:13:08;;;;;;;3.95;1.00;;;;;;;;;;4955466;28;20058;-58
2021/06/16 09:15:52;;;;;;;1.88;0.90;;;;;;;;;;4956203;28;20054;-61
2021/06/16 09:18:45;;;;;;;5.75;0.80;;;;;;;;;;4950443;28;20070;-58
2021/06/16 09:21:39;;;;;;;1.80;0.70;;;;;;;;;;4951571;28;20058;-58
2021/06/16 09:24:38;;;;;;;5.07;0.85;;;;;;;;;;4951537;28;21997;-59
2021/06/16 09:27:35;;;;;;;3.35;0.88;;;;;;;;;;4951404;28;20777;-59
2021/06/16 09:30:19;;;;;;;3.08;0.90;;;;;;;;;;4950863;28;20069;-58
2021/06/16 09:33:08;;;;;;;5.20;1.02;;;;;;;;;;4952847;28;20050;-59
2021/06/16 09:35:51;;;;;;;3.05;0.80;;;;;;;;;;4951212;28;20058;-59
2021/06/16 09:38:38;;;;;;;4.82;1.08;;;;;;;;;;4951580;28;20041;-59
2021/06/16 09:41:22;;;;;;;1.75;0.90;;;;;;;;;;4950307;28;20418;-59
2021/06/16 09:44:07;;;;;;;2.42;0.90;;;;;;;;;;4937643;28;20054;-57
2021/06/16 09:47:09;;;;;;;5.13;1.00;;;;;;;;;;4953588;28;20085;-58
2021/06/16 09:49:58;;;;;;;2.43;0.87;;;;;;;;;;4949497;28;20105;-58
2021/06/16 09:52:43;;;;;;;4.35;1.00;;;;;;;;;;4953110;28;20301;-58
2021/06/16 09:55:20;;;;;;;8.30;1.02;;;;;;;;;;4952153;28;20051;-56
2021/06/16 09:58:03;;;;;;;4.25;0.93;;;;;;;;;;4947880;28;20047;-58
2021/06/16 10:00:32;;;;;;;2.67;0.95;;;;;;;;;;4948951;28;20391;-58
2021/06/16 10:03:07;;;;;;;5.03;1.30;;;;;;;;;;4946980;28;20035;-58
2021/06/16 10:05:32;;;;;;;3.03;0.90;;;;;;;;;;4946810;28;20122;-57
2021/06/16 10:07:58;;;;;;;3.97;1.03;;;;;;;;;;4945743;28;20051;-59
2021/06/16 10:10:23;;;;;;;3.92;0.95;;;;;;;;;;4925141;28;20316;-59
2021/06/16 10:12:52;;;;;;;2.47;0.80;;;;;;;;;;4947881;28;20039;-58
2021/06/16 10:15:20;;;;;;;8.13;1.08;;;;;;;;;;4946740;28;20050;-58
2021/06/16 10:17:50;;;;;;;3.70;0.73;;;;;;;;;;4948185;28;20027;-58
2021/06/16 10:20:20;;;;;;;2.35;0.82;;;;;;;;;;4944679;28;20034;-59
2021/06/16 10:22:49;;;;;;;2.85;0.57;;;;;;;;;;4931298;28;20490;-59
2021/06/16 10:25:15;;;;;;;2.65;0.55;;;;;;;;;;4946990;28;20653;-59
2021/06/16 10:28:02;;;;;;;7.85;1.30;;;;;;;;;;4945103;28;20046;-58
2021/06/16 10:30:33;;;;;;;0.65;0.45;;;;;;;;;;4935366;28;20043;-59
2021/06/16 10:32:59;;;;;;;2.60;0.80;;;;;;;;;;4944996;28;20130;-59
2021/06/16 10:35:36;;;;;;;1.30;0.70;;;;;;;;;;4947522;28;20810;-59
2021/06/16 10:38:14;;;;;;;2.72;0.82;;;;;;;;;;4934840;28;20550;-59
2021/06/16 10:40:52;;;;;;;3.40;0.50;;;;;;;;;;4946767;28;20042;-59
2021/06/16 10:43:28;;;;;;;2.75;0.45;;;;;;;;;;4946839;28;20043;-57
2021/06/16 10:45:57;;;;;;;3.30;0.77;;;;;;;;;;4928547;28;20067;-58
2021/06/16 10:48:40;;;;;;;4.55;1.00;;;;;;;;;;4946105;28;20058;-58
2021/06/16 10:51:08;;;;;;;;;;;;;;;;;;4949049;28;20030;-59
2021/06/16 10:53:54;;;;;;;3.22;0.52;;;;;;;;;;4945519;28;19930;-57
2021/06/16 10:56:39;;;;;;;2.10;0.70;;;;;;;;;;4935655;28;20026;-57
2021/06/16 10:59:04;;;;;;;1.27;0.63;;;;;;;;;;4934657;28;20038;-59
2021/06/16 11:01:44;;;;;;;4.15;0.50;;;;;;;;;;4946209;28;20484;-57
2021/06/16 11:04:12;;;;;;;3.55;0.93;;;;;;;;;;4946619;28;21017;-58
2021/06/16 11:06:38;;;;;;;1.15;0.60;;;;;;;;;;4945415;28;20404;-58
2021/06/16 11:09:11;;;;;;;5.72;0.70;;;;;;;;;;4945009;28;20457;-58
2021/06/16 11:11:52;;;;;;;2.88;0.73;;;;;;;;;;4947425;28;20039;-58
2021/06/16 11:14:32;;;;;;;6.35;0.60;;;;;;;;;;4944899;28;20073;-59
2021/06/16 11:17:01;;;;;;;2.40;0.60;;;;;;;;;;4944340;28;20031;-58
2021/06/16 11:19:29;;;;;;;2.58;0.60;;;;;;;;;;4929562;28;20031;-59
2021/06/16 11:21:56;;;;;;;2.67;0.50;;;;;;;;;;4945230;28;20039;-59
2021/06/16 11:24:41;;;;;;;3.78;0.80;;;;;;;;;;4944833;28;20959;-58
2021/06/16 11:27:11;;;;;;;3.80;0.82;;;;;;;;;;4929655;28;20039;-58
2021/06/16 11:29:55;;;;;;;2.75;0.70;;;;;;;;;;4944756;28;20080;-58
2021/06/16 11:32:23;;;;;;;3.88;0.80;;;;;;;;;;4943371;28;21071;-57
2021/06/16 11:34:53;;;;;;;3.33;0.80;;;;;;;;;;4946010;28;20031;-58
2021/06/16 11:37:37;;;;;;;1.55;0.60;;;;;;;;;;4944827;28;20039;-59
2021/06/16 11:40:03;;;;;;;5.25;0.70;;;;;;;;;;4945308;28;20031;-59
2021/06/16 11:42:38;;;;;;;1.80;0.60;;;;;;;;;;4946143;28;20578;-58
2021/06/16 11:45:07;;;;;;;1.08;0.73;;;;;;;;;;4946521;28;20134;-58
2021/06/16 11:47:35;;;;;;;3.13;1.02;;;;;;;;;;4944499;28;20488;-58
2021/06/16 11:50:07;;;;;;;6.78;0.55;;;;;;;;;;4941392;28;20131;-58
2021/06/16 11:52:33;;;;;;;2.85;0.85;;;;;;;;;;4943542;28;20046;-58
2021/06/16 11:54:58;;;;;;;2.92;1.00;;;;;;;;;;4943886;28;21001;-58
2021/06/16 11:57:30;;;;;;;2.58;0.70;;;;;;;;;;4944248;28;20041;-58
2021/06/16 11:59:58;;;;;;;2.78;0.73;;;;;;;;;;4946119;28;20043;-59
2021/06/16 12:02:27;;;;;;;2.33;0.65;;;;;;;;;;4933218;28;20031;-59
2021/06/16 12:04:59;;;;;;;0.55;0.52;;;;;;;;;;4933050;28;20130;-59
2021/06/16 12:07:26;;;;;;;3.33;0.95;;;;;;;;;;4944701;28;20391;-58
2021/06/16 12:09:53;;;;;;;3.33;0.75;;;;;;;;;;4944652;28;20626;-58
2021/06/16 12:12:28;;;;;;;1.27;0.60;;;;;;;;;;4944079;28;20053;-58
2021/06/16 12:15:04;;;;;;;0.65;0.45;;;;;;;;;;4945482;28;20050;-59
2021/06/16 12:17:30;;;;;;;8.05;0.77;;;;;;;;;;4924451;28;20050;-58
2021/06/16 12:20:05;;;;;;;2.33;0.68;;;;;;;;;;4927637;28;20049;-58
2021/06/16 12:22:36;;;;;;;2.28;0.88;;;;;;;;;;4932503;28;20439;-58
2021/06/16 12:25:01;;;;;;;6.13;1.25;;;;;;;;;;4928187;28;20030;-59
2021/06/16 12:27:31;;;;;;;1.42;0.60;;;;;;;;;;4945505;28;20105;-59
2021/06/16 12:29:56;;;;;;;1.48;0.60;;;;;;;;;;4945496;28;20023;-58
2021/06/16 12:32:33;;;;;;;2.28;0.90;;;;;;;;;;4943456;28;20701;-59
2021/06/16 12:35:25;;;;;;;3.22;0.88;;;;;;;;;;4942771;28;20046;-59
2021/06/16 12:37:52;;;;;;;2.33;0.65;;;;;;;;;;4945005;28;20154;-58
2021/06/16 12:40:29;;;;;;;3.88;0.95;;;;;;;;;;4944282;28;20042;-57
2021/06/16 12:42:57;;;;;;;5.25;0.90;;;;;;;;;;4945292;28;20048;-58
2021/06/16 12:45:25;;;;;;;1.27;0.75;;;;;;;;;;4945655;28;20030;-58
2021/06/16 12:47:53;;;;;;;1.38;0.65;;;;;;;;;;4932679;28;20095;-59
2021/06/16 12:50:30;;;;;;;2.20;0.77;;;;;;;;;;4943766;28;20428;-59
2021/06/16 12:52:58;;;;;;;1.85;0.82;;;;;;;;;;4944005;28;20065;-58
2021/06/16 12:55:27;;;;;;;2.45;0.77;;;;;;;;;;4944442;28;20047;-59
2021/06/16 12:57:54;;;;;;;3.67;0.75;;;;;;;;;;4945004;28;20118;-58
2021/06/16 13:00:27;;;;;;;2.55;0.68;;;;;;;;;;4944192;28;20051;-58
2021/06/16 13:02:52;;;;;;;4.32;0.90;;;;;;;;;;4931895;28;20758;-59
2021/06/16 13:05:25;;;;;;;8.32;1.33;;;;;;;;;;4945496;28;20082;-58
2021/06/16 13:07:54;;;;;;;4.22;0.73;;;;;;;;;;4944061;28;20047;-59
2021/06/16 13:10:23;;;;;;;1.13;0.40;;;;;;;;;;4945156;28;21247;-59
2021/06/16 13:12:52;;;;;;;3.63;0.70;;;;;;;;;;4942711;28;20031;-59
2021/06/16 13:15:20;;;;;;;6.32;0.80;;;;;;;;;;4933042;28;20515;-59
2021/06/16 13:17:50;;;;;;;2.58;0.80;;;;;;;;;;4944757;28;20044;-58
2021/06/16 13:20:32;;;;;;;4.85;0.93;;;;;;;;;;4944403;28;20086;-58
2021/06/16 13:23:10;;;;;;;1.15;0.60;;;;;;;;;;4943930;28;21254;-58
2021/06/16 13:25:37;;;;;;;1.85;0.65;;;;;;;;;;4927612;28;20035;-58
2021/06/16 13:28:07;;;;;;;2.05;0.80;;;;;;;;;;4914991;28;21656;-59
2021/06/16 13:30:36;;;;;;;2.50;0.77;;;;;;;;;;4943748;28;20039;-59
2021/06/16 13:33:02;;;;;;;1.98;0.65;;;;;;;;;;4935991;28;20073;-57
2021/06/16 13:35:28;;;;;;;2.67;0.40;;;;;;;;;;4945338;28;21080;-58
2021/06/16 13:37:57;;;;;;;3.05;0.88;;;;;;;;;;4931027;28;20121;-58
2021/06/16 13:40:25;;;;;;;2.70;0.88;;;;;;;;;;4945712;28;20031;-59
2021/06/16 13:42:52;;;;;;;2.55;0.80;;;;;;;;;;4947452;28;20038;-58
2021/06/16 13:45:22;;;;;;;0.75;0.60;;;;;;;;;;4937078;28;20050;-58
2021/06/16 13:47:48;;;;;;;1.38;0.90;;;;;;;;;;4944924;28;20038;-58
2021/06/16 13:50:19;;;;;;;2.70;0.65;;;;;;;;;;4947640;28;20572;-58
2021/06/16 13:52:47;;;;;;;2.83;0.75;;;;;;;;;;4949080;28;20055;-58
2021/06/16 13:55:16;;;;;;;3.97;0.95;;;;;;;;;;4943536;28;20050;-58
2021/06/16 13:57:43;;;;;;;2.05;1.00;;;;;;;;;;4944634;28;20035;-58
2021/06/16 14:00:10;;;;;;;5.97;0.73;;;;;;;;;;4943820;28;20149;-58
2021/06/16 14:02:36;;;;;;;4.45;0.82;;;;;;;;;;4941927;28;20067;-58
2021/06/16 14:05:03;;;;;;;3.15;0.70;;;;;;;;;;4927533;28;20642;-58
2021/06/16 14:07:31;;;;;;;2.72;0.68;;;;;;;;;;4942156;28;22009;-58
2021/06/16 14:09:56;;;;;;;1.13;0.75;;;;;;;;;;4929334;28;20034;-59
2021/06/16 14:12:24;;;;;;;7.50;0.77;;;;;;;;;;4929276;28;20082;-57
2021/06/16 14:14:52;;;;;;;1.08;0.60;;;;;;;;;;4927526;28;20399;-59
2021/06/16 14:17:18;;;;;;;5.13;0.98;;;;;;;;;;4927813;28;20039;-58
2021/06/16 14:19:46;;;;;;;3.38;0.77;;;;;;;;;;4942612;28;20122;-58
2021/06/16 14:22:14;;;;;;;1.55;0.60;;;;;;;;;;4933022;28;20038;-58
2021/06/16 14:24:41;;;;;;;4.85;0.82;;;;;;;;;;4941067;28;20024;-59
2021/06/16 14:27:11;;;;;;;4.13;0.95;;;;;;;;;;4929339;28;20027;-58
2021/06/16 14:29:42;;;;;;;2.72;0.65;;;;;;;;;;4927127;28;20038;-57
2021/06/16 14:32:15;;;;;;;3.05;0.70;;;;;;;;;;4924609;28;20038;-58
2021/06/16 14:34:42;;;;;;;1.75;0.50;;;;;;;;;;4927136;28;20043;-58
2021/06/16 14:37:13;;;;;;;1.92;0.50;;;;;;;;;;4941215;28;20097;-58
2021/06/16 14:39:39;;;;;;;2.78;0.70;;;;;;;;;;4926699;28;20038;-58
2021/06/16 14:42:07;;;;;;;1.27;0.70;;;;;;;;;;4939721;28;20049;-59
2021/06/16 14:44:38;;;;;;;1.83;0.60;;;;;;;;;;4924683;28;22073;-58
2021/06/16 14:47:04;;;;;;;3.25;0.73;;;;;;;;;;4925112;28;20028;-58
2021/06/16 14:49:32;;;;;;;2.78;0.70;;;;;;;;;;4922138;28;20036;-59
2021/06/16 14:51:57;;;;;;;5.22;0.93;;;;;;;;;;4940739;28;20043;-58
2021/06/16 14:54:26;;;;;;;0.63;0.47;;;;;;;;;;4936966;28;20510;-58
2021/06/16 14:56:54;;;;;;;6.53;0.73;;;;;;;;;;4945777;28;20026;-59
2021/06/16 14:59:20;;;;;;;3.10;0.90;;;;;;;;;;4931750;28;20406;-58
2021/06/16 15:01:48;;;;;;;1.50;0.75;;;;;;;;;;4942627;28;20113;-59
2021/06/16 15:04:16;;;;;;;1.50;0.60;;;;;;;;;;4924557;28;20134;-58
2021/06/16 15:06:45;;;;;;;3.97;0.80;;;;;;;;;;4934225;28;20755;-58
2021/06/16 15:09:15;;;;;;;1.30;0.70;;;;;;;;;;4945018;28;20031;-57